Terminal Aerodrome Forecast
Issued by NWS

Home | Current Version | Previous Version | Text Only | Print | Product List | Glossary On
Versions: 1 2 3 4 5 6 7 8 9 10 11 12 13 14 15 16 17 18
000
FTUS43 KDLH 040300 AAA
TAFBRD
TAF AMD
KBRD 040331Z 0404/0424 30011G18KT P6SM BKN020
     FM040500 29010KT P6SM SCT025
     FM041800 30012G20KT P6SM SCT035=

USA.gov is the U.S. government's official web portal to all federal, state and local government web resources and services.